createdAt,value
2023-03-12T00:02:06.532Z,97046.94
2023-03-12T00:05:11.269Z,97041.59
2023-03-12T00:08:14.282Z,97039.94
2023-03-12T00:11:19.217Z,97038.34
2023-03-12T00:14:22.058Z,97029.28
2023-03-12T00:17:24.757Z,97016.56
2023-03-12T00:20:29.024Z,97009.59
2023-03-12T00:23:31.975Z,97018.41
2023-03-12T00:26:34.808Z,97007.94
2023-03-12T00:29:37.535Z,97002.56
2023-03-12T00:32:40.643Z,96998.53
2023-03-12T00:35:44.862Z,96993.59
2023-03-12T00:38:48.721Z,96990.94
2023-03-12T00:41:51.519Z,96973.88
2023-03-12T00:44:54.287Z,96962.00
2023-03-12T00:47:57.024Z,96959.91
2023-03-12T00:51:01.116Z,96958.06
2023-03-12T00:54:08.836Z,96955.63
2023-03-12T00:57:12.951Z,96951.53
2023-03-12T01:00:16.042Z,96942.72
2023-03-12T01:03:18.811Z,96942.50
2023-03-12T01:06:22.968Z,96921.75
2023-03-12T01:09:27.304Z,96930.38
2023-03-12T01:12:30.119Z,96919.09
2023-03-12T01:15:32.872Z,96916.44
2023-03-12T01:18:35.766Z,96905.97
2023-03-12T01:21:39.987Z,96906.78
2023-03-12T01:24:42.848Z,96897.13
2023-03-12T01:27:45.819Z,96894.69
2023-03-12T01:30:48.940Z,96889.53
2023-03-12T01:33:52.398Z,96899.41
2023-03-12T01:36:56.581Z,96884.00
2023-03-12T01:39:59.443Z,96885.06
2023-03-12T01:43:16.077Z,96858.50
2023-03-12T01:46:26.731Z,96873.13
2023-03-12T01:49:31.179Z,96863.06
2023-03-12T01:52:41.518Z,96864.50
2023-03-12T01:55:44.508Z,96861.44
2023-03-12T01:58:52.496Z,96862.25
2023-03-12T02:01:55.466Z,96855.06
2023-03-12T02:05:01.066Z,96857.50
2023-03-12T02:08:05.443Z,96855.06
2023-03-12T02:11:08.306Z,96848.31
2023-03-12T02:14:13.517Z,96855.06
2023-03-12T02:17:16.458Z,96845.88
2023-03-12T02:20:21.582Z,96849.94
2023-03-12T02:23:30.114Z,96848.09
2023-03-12T02:26:35.292Z,96855.28
2023-03-12T02:29:41.403Z,96848.31
2023-03-12T02:32:49.781Z,96842.16
2023-03-12T02:35:54.291Z,96833.13
2023-03-12T02:38:57.556Z,96826.16
2023-03-12T02:42:01.796Z,96826.16
2023-03-12T02:45:04.868Z,96820.56
2023-03-12T02:48:09.544Z,96821.03
2023-03-12T02:51:12.277Z,96831.47
2023-03-12T02:54:15.936Z,96831.47
2023-03-12T02:57:20.068Z,96821.41
2023-03-12T03:00:23.027Z,96821.19
2023-03-12T03:03:26.085Z,96825.72
2023-03-12T03:06:30.040Z,96827.78
2023-03-12T03:09:32.814Z,96826.97
2023-03-12T03:12:37.151Z,96807.47
2023-03-12T03:15:43.133Z,96821.41
2023-03-12T03:18:45.863Z,96802.72
2023-03-12T03:21:48.683Z,96811.78
2023-03-12T03:24:51.503Z,96800.88
2023-03-12T03:27:57.581Z,96795.75
2023-03-12T03:31:06.364Z,96796.56
2023-03-12T03:34:10.981Z,96785.09
2023-03-12T03:37:13.788Z,96797.84
2023-03-12T03:40:16.573Z,96795.75
2023-03-12T03:43:20.775Z,96784.25
2023-03-12T03:46:23.631Z,96783.44
2023-03-12T03:49:26.470Z,96779.06
2023-03-12T03:52:32.415Z,96772.19
2023-03-12T03:55:37.141Z,96771.31
2023-03-12T03:58:42.484Z,96761.34
2023-03-12T04:01:45.333Z,96765.72
2023-03-12T04:04:48.027Z,96766.53
2023-03-12T04:07:54.124Z,96759.13
2023-03-12T04:10:56.978Z,96763.81
2023-03-12T04:14:03.458Z,96764.69
2023-03-12T04:17:08.320Z,96767.13
2023-03-12T04:20:11.665Z,96755.84
2023-03-12T04:23:15.550Z,96746.22
2023-03-12T04:26:18.539Z,96737.44
2023-03-12T04:29:25.196Z,96750.56
2023-03-12T04:32:28.076Z,96739.66
2023-03-12T04:35:30.930Z,96744.03
2023-03-12T04:38:36.895Z,96731.72
2023-03-12T04:41:39.881Z,96729.88
2023-03-12T04:44:44.007Z,96741.81
2023-03-12T04:47:50.203Z,96733.41
2023-03-12T04:50:56.458Z,96740.19
2023-03-12T04:53:59.259Z,96730.16
2023-03-12T04:57:02.035Z,96735.72
2023-03-12T05:00:10.552Z,96726.44
2023-03-12T05:03:13.528Z,96717.25
2023-03-12T05:06:17.479Z,96726.91
2023-03-12T05:09:21.829Z,96716.22
2023-03-12T05:12:26.272Z,96725.03
2023-03-12T05:15:31.390Z,96714.78
2023-03-12T05:18:35.327Z,96717.91
2023-03-12T05:21:39.174Z,96714.66
2023-03-12T05:24:41.898Z,96707.88
2023-03-12T05:27:46.224Z,96716.94
2023-03-12T05:30:50.355Z,96715.53
2023-03-12T05:33:53.731Z,96722.50
2023-03-12T05:36:56.496Z,96725.41
2023-03-12T05:39:59.326Z,96720.28
2023-03-12T05:43:02.071Z,96724.78
2023-03-12T05:46:10.819Z,96720.47
2023-03-12T05:49:15.139Z,96720.47
2023-03-12T05:52:17.953Z,96721.53
2023-03-12T05:55:20.753Z,96727.44
2023-03-12T05:58:26.144Z,96721.97
2023-03-12T06:01:30.764Z,96722.19
2023-03-12T06:04:33.592Z,96718.84
2023-03-12T06:07:36.366Z,96726.28
2023-03-12T06:10:40.141Z,96732.66
2023-03-12T06:13:43.378Z,96736.13
2023-03-12T06:16:47.675Z,96726.50
2023-03-12T06:19:53.314Z,96740.66
2023-03-12T06:22:56.023Z,96745.38
2023-03-12T06:25:58.833Z,96746.22
2023-03-12T06:29:01.825Z,96744.56
2023-03-12T06:32:06.223Z,96782.75
2023-03-12T06:35:09.417Z,96796.09
2023-03-12T06:38:12.220Z,96813.38
2023-03-12T06:41:15.976Z,96831.25
2023-03-12T06:44:18.894Z,96850.38
2023-03-12T06:47:23.134Z,96863.28
2023-03-12T06:50:25.954Z,96881.97
2023-03-12T06:53:28.728Z,96876.63
2023-03-12T06:56:32.035Z,96897.19
2023-03-12T06:59:34.786Z,96901.69
2023-03-12T07:02:39.165Z,96917.94
2023-03-12T07:05:44.667Z,96923.44
2023-03-12T07:08:47.891Z,96931.06
2023-03-12T07:11:50.687Z,96929.44
2023-03-12T07:14:54.530Z,96933.31
2023-03-12T07:18:02.299Z,96946.50
2023-03-12T07:21:05.375Z,96949.16
2023-03-12T07:24:09.013Z,96962.50
2023-03-12T07:27:13.835Z,96969.47
2023-03-12T07:30:16.707Z,96980.53
2023-03-12T07:33:23.601Z,96992.84
2023-03-12T07:36:26.660Z,96978.09
2023-03-12T07:39:29.459Z,97003.53
2023-03-12T07:42:32.281Z,97010.94
2023-03-12T07:45:35.070Z,97006.63
2023-03-12T07:48:41.506Z,97033.91
2023-03-12T07:51:46.888Z,97030.44
2023-03-12T07:54:50.229Z,97050.16
2023-03-12T07:57:53.797Z,97036.44
2023-03-12T08:00:56.972Z,97043.59
2023-03-12T08:04:01.557Z,97053.03
2023-03-12T08:07:05.785Z,97064.34
2023-03-12T08:10:11.477Z,97057.78
2023-03-12T08:13:14.289Z,97076.66
2023-03-12T08:16:18.666Z,97075.44
2023-03-12T08:19:23.114Z,97098.44
2023-03-12T08:22:25.910Z,97103.53
2023-03-12T08:25:28.744Z,97116.06
2023-03-12T08:28:31.496Z,97117.50
2023-03-12T08:31:35.320Z,97126.16
2023-03-12T08:34:42.206Z,97140.31
2023-03-12T08:37:44.976Z,97151.22
2023-03-12T08:40:47.802Z,97157.56
2023-03-12T08:43:50.490Z,97175.22
2023-03-12T08:46:53.687Z,97176.06
2023-03-12T08:49:58.585Z,97179.94
2023-03-12T08:53:01.475Z,97195.75
2023-03-12T08:56:04.888Z,97206.03
2023-03-12T08:59:07.602Z,97213.44
2023-03-12T09:02:12.603Z,97216.91
2023-03-12T09:05:16.737Z,97234.78
2023-03-12T09:08:19.644Z,97241.31
2023-03-12T09:11:22.506Z,97243.59
2023-03-12T09:17:49.050Z,97260.66
2023-03-12T09:20:53.368Z,97269.47
2023-03-12T09:23:56.209Z,97284.50
2023-03-12T09:26:58.916Z,97280.56
2023-03-12T09:30:01.739Z,97296.38
2023-03-12T09:33:04.556Z,97312.59
2023-03-12T09:36:10.959Z,97319.78
2023-03-12T09:39:15.664Z,97346.28
2023-03-12T09:42:26.261Z,97376.50
2023-03-12T09:45:30.539Z,97375.03
2023-03-12T09:48:34.439Z,97363.75
2023-03-12T09:51:41.629Z,97381.19
2023-03-12T09:54:49.621Z,97381.19
2023-03-12T09:57:53.120Z,97396.84
2023-03-12T10:01:03.676Z,97382.81
2023-03-12T10:04:30.580Z,97416.78
2023-03-12T10:07:36.968Z,97409.41
2023-03-12T10:10:45.340Z,97427.88
2023-03-12T10:13:54.941Z,97431.81
2023-03-12T10:17:04.545Z,97423.13
2023-03-12T10:20:34.121Z,97438.19
2023-03-12T10:23:46.078Z,97463.66
2023-03-12T10:26:50.865Z,97462.84
2023-03-12T10:29:54.731Z,97477.84
2023-03-12T10:32:59.607Z,97475.63
2023-03-12T10:36:02.534Z,97488.31
2023-03-12T10:39:12.471Z,97491.00
2023-03-12T10:42:17.222Z,97496.97
2023-03-12T10:45:23.807Z,97518.13
2023-03-12T10:48:26.930Z,97530.06
2023-03-12T10:51:29.724Z,97526.97
2023-03-12T10:54:36.713Z,97540.75
2023-03-12T10:57:41.523Z,97538.06
2023-03-12T11:00:56.872Z,97555.28
2023-03-12T11:04:10.012Z,97561.66
2023-03-12T11:07:23.164Z,97571.28
2023-03-12T11:10:28.774Z,97578.28
2023-03-12T11:13:32.873Z,97592.25
2023-03-12T11:16:35.643Z,97597.56
2023-03-12T11:19:40.561Z,97615.00
2023-03-12T11:22:43.321Z,97624.25
2023-03-12T11:25:53.664Z,97626.31
2023-03-12T11:29:01.257Z,97643.97
2023-03-12T11:32:07.368Z,97638.19
2023-03-12T11:35:11.212Z,97662.22
2023-03-12T11:38:18.509Z,97667.16
2023-03-12T11:41:31.049Z,97677.84
2023-03-12T11:44:36.940Z,97687.84
2023-03-12T11:47:52.332Z,97701.63
2023-03-12T11:51:07.408Z,97712.28
2023-03-12T11:54:31.178Z,97712.28
2023-03-12T11:57:41.185Z,97745.56
2023-03-12T12:00:50.246Z,97748.38
2023-03-12T12:04:01.812Z,97751.44
2023-03-12T12:07:10.081Z,97772.19
2023-03-12T12:10:23.466Z,97781.22
2023-03-12T12:13:33.139Z,97806.63
2023-03-12T12:16:51.344Z,97822.66
2023-03-12T12:20:01.519Z,97824.69
2023-03-12T12:23:19.182Z,97830.84
2023-03-12T12:26:24.969Z,97828.56
2023-03-12T12:29:37.196Z,97838.41
2023-03-12T12:33:00.021Z,97847.69
2023-03-12T12:36:03.855Z,97854.69
2023-03-12T12:39:12.669Z,97864.72
2023-03-12T12:42:17.794Z,97876.03
2023-03-12T12:45:22.898Z,97863.91
2023-03-12T12:48:28.218Z,97883.78
2023-03-12T12:51:32.448Z,97893.84
2023-03-12T12:54:43.879Z,97914.72
2023-03-12T12:57:50.465Z,97932.41
2023-03-12T13:00:55.975Z,97938.75
2023-03-12T13:04:04.790Z,97942.25
2023-03-12T13:07:25.193Z,97940.97
2023-03-12T13:10:53.083Z,97957.00
2023-03-12T13:14:15.287Z,97952.03
2023-03-12T13:17:30.182Z,97962.88
2023-03-12T13:20:37.779Z,97967.28
2023-03-12T13:23:45.741Z,97959.56
2023-03-12T13:26:54.801Z,97961.84
2023-03-12T13:29:58.190Z,97964.13
2023-03-12T13:33:12.456Z,97982.63
2023-03-12T13:36:24.646Z,98005.63
2023-03-12T13:39:32.444Z,98031.91
2023-03-12T13:42:40.375Z,98020.41
2023-03-12T13:45:56.372Z,98028.75
2023-03-12T13:49:04.151Z,98044.34
2023-03-12T13:52:20.573Z,98078.22
2023-03-12T13:55:25.708Z,98082.53
2023-03-12T13:58:29.044Z,98097.72
2023-03-12T14:01:33.165Z,98098.06
2023-03-12T14:04:38.928Z,98092.75
2023-03-12T14:07:56.816Z,98089.63
2023-03-12T14:11:05.008Z,98081.81
2023-03-12T14:14:24.286Z,98089.00
2023-03-12T14:17:28.116Z,98099.19
2023-03-12T14:20:32.375Z,98090.56
2023-03-12T14:23:36.992Z,98099.91
2023-03-12T14:26:39.889Z,98106.28
2023-03-12T14:29:43.994Z,98104.97
2023-03-12T14:32:48.877Z,98114.00
2023-03-12T14:35:56.920Z,98127.53
2023-03-12T14:39:02.149Z,98145.38
2023-03-12T14:42:06.094Z,98153.75
2023-03-12T14:45:12.404Z,98164.44
2023-03-12T14:48:15.227Z,98161.75
2023-03-12T14:51:24.207Z,98175.25
2023-03-12T14:54:28.104Z,98181.63
2023-03-12T14:57:30.874Z,98191.47
2023-03-12T15:00:33.893Z,98194.50
2023-03-12T15:03:41.857Z,98214.00
2023-03-12T15:06:49.998Z,98228.16
2023-03-12T15:09:53.183Z,98238.00
2023-03-12T15:12:57.396Z,98240.88
2023-03-12T15:16:01.495Z,98251.69
2023-03-12T15:19:05.164Z,98250.22
2023-03-12T15:22:12.516Z,98267.06
2023-03-12T15:25:25.307Z,98268.25
2023-03-12T15:28:28.953Z,98273.75
2023-03-12T15:31:42.547Z,98289.28
2023-03-12T15:34:45.584Z,98308.59
2023-03-12T15:37:53.510Z,98320.66
2023-03-12T15:41:00.246Z,98315.13
2023-03-12T15:44:03.533Z,98332.97
2023-03-12T15:47:10.735Z,98347.47
2023-03-12T15:50:19.061Z,98353.66
2023-03-12T15:53:29.889Z,98369.66
2023-03-12T15:56:33.188Z,98376.00
2023-03-12T15:59:35.923Z,98380.03
2023-03-12T16:02:39.736Z,98384.38
2023-03-12T16:05:42.542Z,98399.72
2023-03-12T16:08:47.727Z,98399.88
2023-03-12T16:11:50.658Z,98410.53
2023-03-12T16:14:55.862Z,98414.22
2023-03-12T16:17:58.705Z,98424.06
2023-03-12T16:21:01.489Z,98435.91
2023-03-12T16:24:07.138Z,98447.03
2023-03-12T16:27:15.841Z,98447.22
2023-03-12T16:30:25.025Z,98449.25
2023-03-12T16:33:27.740Z,98458.41
2023-03-12T16:36:30.578Z,98467.97
2023-03-12T16:39:34.738Z,98472.31
2023-03-12T16:42:37.783Z,98480.41
2023-03-12T16:45:43.806Z,98485.56
2023-03-12T16:48:47.143Z,98489.00
2023-03-12T16:51:49.925Z,98499.44
2023-03-12T16:54:54.195Z,98505.81
2023-03-12T16:57:59.258Z,98503.91
2023-03-12T17:01:03.181Z,98513.25
2023-03-12T17:04:07.005Z,98518.13
2023-03-12T17:07:09.811Z,98523.78
2023-03-12T17:10:16.116Z,98529.28
2023-03-12T17:13:20.528Z,98529.91
2023-03-12T17:16:24.349Z,98530.75
2023-03-12T17:19:27.196Z,98539.63
2023-03-12T17:22:29.985Z,98539.47
2023-03-12T17:25:35.469Z,98545.63
2023-03-12T17:28:38.200Z,98547.44
2023-03-12T17:31:41.021Z,98545.06
2023-03-12T17:34:47.364Z,98557.03
2023-03-12T17:37:51.134Z,98559.19
2023-03-12T17:40:55.333Z,98566.03
2023-03-12T17:44:01.685Z,98565.00
2023-03-12T17:47:04.538Z,98566.34
2023-03-12T17:50:08.069Z,98577.03
2023-03-12T17:53:10.981Z,98575.00
2023-03-12T17:56:17.989Z,98589.03
2023-03-12T17:59:20.863Z,98591.69
2023-03-12T18:02:23.655Z,98582.00
2023-03-12T18:05:26.508Z,98591.16
2023-03-12T18:08:29.332Z,98591.34
2023-03-12T18:11:33.455Z,98600.13
2023-03-12T18:14:36.197Z,98598.13
2023-03-12T18:17:39.049Z,98602.59
2023-03-12T18:20:41.833Z,98604.56
2023-03-12T18:23:46.164Z,98608.25
2023-03-12T18:26:52.232Z,98609.28
2023-03-12T18:29:55.057Z,98617.78
2023-03-12T18:32:57.883Z,98627.28
2023-03-12T18:36:00.789Z,98617.94
2023-03-12T18:39:06.599Z,98628.94
2023-03-12T18:42:11.963Z,98623.59
2023-03-12T18:45:14.675Z,98619.09
2023-03-12T18:48:17.417Z,98624.13
2023-03-12T18:51:20.214Z,98631.31
2023-03-12T18:54:24.688Z,98633.03
2023-03-12T18:57:29.612Z,98636.53
2023-03-12T19:00:32.400Z,98626.72
2023-03-12T19:03:39.931Z,98630.28
2023-03-12T19:06:50.691Z,98634.31
2023-03-12T19:09:54.396Z,98649.38
2023-03-12T19:12:59.149Z,98645.91
2023-03-12T19:16:03.047Z,98658.22
2023-03-12T19:19:05.857Z,98655.28
2023-03-12T19:22:10.823Z,98660.13
2023-03-12T19:25:13.971Z,98658.47
2023-03-12T19:28:18.171Z,98667.13
2023-03-12T19:31:21.257Z,98674.47
2023-03-12T19:34:24.097Z,98681.00
2023-03-12T19:37:26.842Z,98688.84
2023-03-12T19:40:31.162Z,98696.34
2023-03-12T19:43:35.354Z,98701.38
2023-03-12T19:46:38.081Z,98701.38
2023-03-12T19:49:40.904Z,98701.72
2023-03-12T19:52:43.663Z,98712.75
2023-03-12T19:55:49.435Z,98712.59
2023-03-12T19:58:53.582Z,98711.25
2023-03-12T20:01:56.501Z,98711.91
2023-03-12T20:04:59.370Z,98720.44
2023-03-12T20:08:03.302Z,98720.63
2023-03-12T20:11:07.050Z,98726.44
2023-03-12T20:14:11.245Z,98721.94
2023-03-12T20:17:14.158Z,98729.44
2023-03-12T20:20:17.280Z,98732.28
2023-03-12T20:23:20.318Z,98736.13
2023-03-12T20:26:23.270Z,98733.63
2023-03-12T20:29:27.578Z,98746.47
2023-03-12T20:32:30.393Z,98741.28
2023-03-12T20:35:34.391Z,98753.28
2023-03-12T20:38:37.372Z,98750.13
2023-03-12T20:41:42.583Z,98757.97
2023-03-12T20:44:47.009Z,98758.13
2023-03-12T20:47:49.776Z,98763.81
2023-03-12T20:50:52.993Z,98763.31
2023-03-12T20:53:55.804Z,98765.31
2023-03-12T20:56:58.942Z,98767.16
2023-03-12T21:00:03.267Z,98770.47
2023-03-12T21:03:06.005Z,98764.31
2023-03-12T21:06:08.895Z,98772.63
2023-03-12T21:09:11.641Z,98781.47
2023-03-12T21:12:14.488Z,98774.63
2023-03-12T21:15:18.613Z,98785.66
2023-03-12T21:18:21.379Z,98785.47
2023-03-12T21:21:24.822Z,98784.50
2023-03-12T21:24:28.078Z,98795.00
2023-03-12T21:27:44.575Z,98794.00
2023-03-12T21:30:53.940Z,98798.16
2023-03-12T21:33:56.817Z,98809.19
2023-03-12T21:37:02.335Z,98806.81
2023-03-12T21:40:05.674Z,98803.00
2023-03-12T21:43:10.013Z,98807.16
2023-03-12T21:46:17.231Z,98818.38
2023-03-12T21:49:21.387Z,98811.34
2023-03-12T21:52:24.258Z,98819.19
2023-03-12T21:55:27.086Z,98829.22
2023-03-12T21:58:30.338Z,98821.66
2023-03-12T22:01:34.561Z,98820.81
2023-03-12T22:04:37.478Z,98817.50
2023-03-12T22:07:40.514Z,98829.84
2023-03-12T22:10:45.146Z,98828.50
2023-03-12T22:13:48.100Z,98822.81
2023-03-12T22:16:53.243Z,98839.19
2023-03-12T22:19:56.033Z,98844.34
2023-03-12T22:22:58.811Z,98845.69
2023-03-12T22:26:03.206Z,98850.00
2023-03-12T22:29:07.108Z,98855.84
2023-03-12T22:32:11.278Z,98863.03
2023-03-12T22:35:14.066Z,98871.72
2023-03-12T22:38:16.845Z,98881.72
2023-03-12T22:41:20.889Z,98891.94
2023-03-12T22:44:23.631Z,98895.44
2023-03-12T22:47:27.826Z,98910.31
2023-03-12T22:50:30.790Z,98912.66
2023-03-12T22:53:34.078Z,98914.84
2023-03-12T22:56:37.034Z,98922.50
2023-03-12T22:59:39.836Z,98927.88
2023-03-12T23:02:43.998Z,98928.00
2023-03-12T23:05:46.745Z,98946.56
2023-03-12T23:08:49.664Z,98933.00
2023-03-12T23:11:54.760Z,98936.03
2023-03-12T23:14:57.559Z,98938.19
2023-03-12T23:18:01.684Z,98942.56
2023-03-12T23:21:05.704Z,98946.56
2023-03-12T23:24:08.956Z,98955.75
2023-03-12T23:27:11.761Z,98950.25
2023-03-12T23:30:15.324Z,98965.13
2023-03-12T23:33:19.409Z,98957.63
2023-03-12T23:36:22.928Z,98971.13
2023-03-12T23:39:25.734Z,98977.97
2023-03-12T23:42:28.997Z,98976.13
2023-03-12T23:45:31.782Z,98975.44
2023-03-12T23:48:36.814Z,98982.81
2023-03-12T23:51:41.362Z,98976.47
2023-03-12T23:54:46.191Z,98984.09
2023-03-12T23:57:48.953Z,98983.09
